createdAt,value
2019-04-21T00:01:56.381Z,101513.36
2019-04-21T00:04:40.822Z,101512.91
2019-04-21T00:07:17.275Z,101510.36
2019-04-21T00:14:39.735Z,101507.74
2019-04-21T00:17:05.346Z,101501.33
2019-04-21T00:19:39.496Z,101501.72
2019-04-21T00:22:20.343Z,101507.22
2019-04-21T00:24:50.722Z,101505.09
2019-04-21T00:27:26.624Z,101501.16
2019-04-21T00:29:59.124Z,101493.45
2019-04-21T00:32:22.200Z,101492.16
2019-04-21T00:34:42.044Z,101491.31
2019-04-21T00:37:18.923Z,101498.55
2019-04-21T00:42:30.351Z,101489.13
2019-04-21T00:45:00.830Z,101492.12
2019-04-21T00:47:31.204Z,101488.20
2019-04-21T00:50:02.239Z,101480.11
2019-04-21T00:52:49.201Z,101482.70
2019-04-21T00:57:45.296Z,101479.30
2019-04-21T01:00:16.454Z,101470.76
2019-04-21T01:02:44.467Z,101468.15
2019-04-21T01:05:11.188Z,101468.59
2019-04-21T01:07:37.292Z,101466.85
2019-04-21T01:10:03.889Z,101461.77
2019-04-21T01:12:44.516Z,101467.65
2019-04-21T01:15:18.476Z,101467.52
2019-04-21T01:17:44.858Z,101466.60
2019-04-21T01:20:01.249Z,101468.28
2019-04-21T01:22:19.244Z,101460.98
2019-04-21T01:24:57.964Z,101458.45
2019-04-21T01:27:39.805Z,101453.39
2019-04-21T01:30:14.657Z,101449.95
2019-04-21T01:32:46.862Z,101449.50
2019-04-21T01:35:12.205Z,101451.14
2019-04-21T01:37:45.311Z,101446.54
2019-04-21T01:40:16.888Z,101440.12
2019-04-21T01:42:48.089Z,101443.92
2019-04-21T01:45:15.724Z,101443.37
2019-04-21T01:47:40.879Z,101445.33
2019-04-21T01:50:05.728Z,101441.09
2019-04-21T01:52:54.703Z,101439.36
2019-04-21T01:55:19.488Z,101444.05
2019-04-21T01:57:51.246Z,101440.22
2019-04-21T02:00:14.467Z,101436.77
2019-04-21T02:02:59.391Z,101440.52
2019-04-21T02:05:34.416Z,101438.50
2019-04-21T02:07:54.707Z,101432.45
2019-04-21T02:10:34.942Z,101434.45
2019-04-21T02:12:56.879Z,101428.95
2019-04-21T02:15:31.126Z,101436.14
2019-04-21T02:17:59.455Z,101429.76
2019-04-21T02:20:24.429Z,101434.45
2019-04-21T02:23:11.064Z,101435.70
2019-04-21T02:25:31.791Z,101431.84
2019-04-21T02:28:04.778Z,101431.36
2019-04-21T02:30:47.484Z,101423.32
2019-04-21T02:33:18.556Z,101414.40
2019-04-21T02:35:52.757Z,101415.53
2019-04-21T02:50:47.241Z,101407.59
2019-04-21T02:53:22.633Z,101401.44
2019-04-21T02:55:44.559Z,101394.14
2019-04-21T03:00:55.536Z,101399.13
2019-04-21T03:03:36.462Z,101397.89
2019-04-21T03:06:08.766Z,101391.85
2019-04-21T03:08:44.852Z,101387.26
2019-04-21T03:13:42.982Z,101380.04
2019-04-21T03:16:20.152Z,101377.47
2019-04-21T03:18:46.511Z,101381.31
2019-04-21T03:28:39.573Z,101370.33
2019-04-21T03:41:10.692Z,101363.12
2019-04-21T03:46:12.070Z,101362.14
2019-04-21T03:48:41.018Z,101363.41
2019-04-21T03:51:15.993Z,101365.81
2019-04-21T03:53:40.449Z,101363.52
2019-04-21T03:56:15.521Z,101368.09
2019-04-21T03:58:55.339Z,101366.41
2019-04-21T04:01:28.508Z,101367.82
2019-04-21T04:04:06.707Z,101359.41
2019-04-21T04:06:36.304Z,101367.16
2019-04-21T04:09:09.677Z,101366.58
2019-04-21T04:11:37.730Z,101364.16
2019-04-21T04:19:09.622Z,101361.55
2019-04-21T04:21:39.998Z,101354.72
2019-04-21T04:24:07.179Z,101361.55
2019-04-21T04:29:12.454Z,101356.47
2019-04-21T04:31:37.792Z,101360.65
2019-04-21T04:34:12.633Z,101355.59
2019-04-21T04:39:36.263Z,101357.52
2019-04-21T04:47:05.414Z,101356.88
2019-04-21T04:52:56.975Z,101354.00
2019-04-21T04:54:47.560Z,101354.10
2019-04-21T04:57:07.975Z,101349.41
2019-04-21T05:02:11.346Z,101350.29
2019-04-21T05:04:39.762Z,101345.69
2019-04-21T05:09:32.008Z,101352.63
2019-04-21T05:11:55.785Z,101351.38
2019-04-21T05:14:33.777Z,101350.08
2019-04-21T05:17:21.509Z,101352.27
2019-04-21T05:22:05.832Z,101349.47
2019-04-21T05:24:24.987Z,101351.23
2019-04-21T05:26:47.961Z,101347.41
2019-04-21T05:29:20.478Z,101347.92
2019-04-21T05:32:09.232Z,101343.73
2019-04-21T05:34:42.409Z,101340.45
2019-04-21T05:37:25.947Z,101344.75
2019-04-21T05:39:53.511Z,101344.45
2019-04-21T05:42:23.680Z,101340.70
2019-04-21T05:45:01.596Z,101337.41
2019-04-21T05:47:35.480Z,101332.30
2019-04-21T05:50:06.495Z,101341.78
2019-04-21T05:52:35.660Z,101341.84
2019-04-21T05:55:13.918Z,101343.70
2019-04-21T05:57:42.648Z,101343.09
2019-04-21T06:00:09.907Z,101337.59
2019-04-21T06:02:48.108Z,101341.35
2019-04-21T06:05:20.667Z,101342.78
2019-04-21T06:07:46.127Z,101338.98
2019-04-21T06:10:12.381Z,101336.70
2019-04-21T06:12:56.673Z,101333.95
2019-04-21T06:15:13.795Z,101344.99
2019-04-21T06:17:50.575Z,101340.00
2019-04-21T06:20:21.083Z,101343.64
2019-04-21T06:22:53.240Z,101340.24
2019-04-21T06:27:55.697Z,101339.53
2019-04-21T06:30:20.728Z,101336.70
2019-04-21T06:32:50.599Z,101334.34
2019-04-21T06:35:45.788Z,101337.43
2019-04-21T06:38:06.551Z,101328.27
2019-04-21T06:40:35.824Z,101329.36
2019-04-21T06:43:16.204Z,101325.61
2019-04-21T06:45:36.601Z,101327.98
2019-04-21T06:48:04.705Z,101327.15
2019-04-21T06:50:39.890Z,101325.44
2019-04-21T06:53:14.579Z,101319.36
2019-04-21T06:55:35.248Z,101315.19
2019-04-21T06:58:08.340Z,101319.31
2019-04-21T07:00:30.457Z,101319.56
2019-04-21T07:03:16.001Z,101324.79
2019-04-21T07:05:35.832Z,101320.52
2019-04-21T07:08:21.881Z,101327.41
2019-04-21T07:10:31.779Z,101319.20
2019-04-21T07:13:03.191Z,101320.22
2019-04-21T07:15:36.981Z,101317.52
2019-04-21T07:18:12.615Z,101317.66
2019-04-21T07:20:38.005Z,101316.45
2019-04-21T07:23:09.305Z,101319.36
2019-04-21T07:25:40.929Z,101317.90
2019-04-21T07:28:12.734Z,101323.89
2019-04-21T07:30:43.651Z,101320.00
2019-04-21T07:33:33.589Z,101320.67
2019-04-21T07:35:37.464Z,101323.27
2019-04-21T07:38:09.677Z,101327.19
2019-04-21T07:40:35.336Z,101329.80
2019-04-21T07:43:09.050Z,101323.86
2019-04-21T07:45:35.110Z,101323.00
2019-04-21T07:48:13.718Z,101322.75
2019-04-21T07:50:48.728Z,101323.95
2019-04-21T07:53:32.295Z,101320.94
2019-04-21T07:55:35.798Z,101310.19
2019-04-21T07:58:20.972Z,101311.43
2019-04-21T08:00:57.731Z,101312.03
2019-04-21T08:03:30.317Z,101309.73
2019-04-21T08:05:59.040Z,101313.98
2019-04-21T08:08:20.752Z,101312.95
2019-04-21T08:10:50.733Z,101314.38
2019-04-21T08:13:34.253Z,101314.31
2019-04-21T08:16:12.782Z,101308.97
2019-04-21T08:18:27.017Z,101310.16
2019-04-21T08:21:02.745Z,101305.34
2019-04-21T08:23:37.872Z,101305.59
2019-04-21T08:28:39.198Z,101306.28
2019-04-21T08:31:07.978Z,101301.83
2019-04-21T08:33:47.007Z,101300.34
2019-04-21T08:36:17.470Z,101298.34
2019-04-21T08:38:51.023Z,101302.99
2019-04-21T08:41:12.334Z,101301.48
2019-04-21T08:43:45.594Z,101290.23
2019-04-21T08:46:19.865Z,101287.20
2019-04-21T08:48:52.628Z,101285.80
2019-04-21T08:51:30.254Z,101288.25
2019-04-21T08:53:54.705Z,101275.73
2019-04-21T08:56:21.294Z,101273.70
2019-04-21T08:58:57.620Z,101277.25
2019-04-21T09:01:43.098Z,101264.51
2019-04-21T09:04:13.374Z,101264.64
2019-04-21T09:07:04.839Z,101263.64
2019-04-21T09:09:25.307Z,101260.23
2019-04-21T09:11:50.932Z,101261.11
2019-04-21T09:14:19.113Z,101256.64
2019-04-21T09:16:47.560Z,101258.70
2019-04-21T09:19:35.447Z,101259.05
2019-04-21T09:21:50.231Z,101255.86
2019-04-21T09:24:22.268Z,101247.91
2019-04-21T09:26:52.719Z,101250.61
2019-04-21T09:29:10.804Z,101248.14
2019-04-21T09:31:39.143Z,101248.20
2019-04-21T09:34:06.619Z,101241.62
2019-04-21T09:36:41.298Z,101237.14
2019-04-21T09:39:12.999Z,101230.20
2019-04-21T09:41:38.209Z,101229.11
2019-04-21T09:44:13.959Z,101230.86
2019-04-21T09:46:44.432Z,101223.59
2019-04-21T09:49:12.160Z,101221.06
2019-04-21T09:51:37.281Z,101223.58
2019-04-21T09:54:13.614Z,101224.76
2019-04-21T09:56:46.243Z,101226.60
2019-04-21T09:59:23.714Z,101223.64
2019-04-21T10:01:58.918Z,101220.75
2019-04-21T10:04:18.543Z,101201.73
2019-04-21T10:06:47.673Z,101210.05
2019-04-21T10:09:19.566Z,101210.05
2019-04-21T10:11:46.550Z,101206.09
2019-04-21T10:14:15.065Z,101206.09
2019-04-21T10:16:45.243Z,101199.34
2019-04-21T10:19:13.670Z,101199.70
2019-04-21T10:21:42.446Z,101192.91
2019-04-21T10:24:12.456Z,101197.96
2019-04-21T10:26:41.318Z,101188.00
2019-04-21T10:29:19.796Z,101180.61
2019-04-21T10:31:41.001Z,101183.81
2019-04-21T10:34:09.529Z,101175.52
2019-04-21T10:36:38.065Z,101171.19
2019-04-21T10:39:07.111Z,101171.19
2019-04-21T10:41:35.668Z,101155.37
2019-04-21T10:44:05.053Z,101155.37
2019-04-21T10:46:34.897Z,101149.69
2019-04-21T10:49:04.439Z,101156.56
2019-04-21T10:51:33.129Z,101136.59
2019-04-21T10:54:02.031Z,101145.57
2019-04-21T10:56:36.334Z,101145.84
2019-04-21T10:59:00.752Z,101144.05
2019-04-21T11:01:29.525Z,101134.53
2019-04-21T11:04:00.635Z,101140.17
2019-04-21T11:06:30.802Z,101140.17
2019-04-21T11:09:01.499Z,101130.14
2019-04-21T11:11:30.183Z,101126.95
2019-04-21T11:13:59.169Z,101119.06
2019-04-21T11:16:28.890Z,101121.69
2019-04-21T11:18:57.948Z,101126.34
2019-04-21T11:21:27.132Z,101114.00
2019-04-21T11:23:56.507Z,101129.69
2019-04-21T11:26:25.290Z,101109.19
2019-04-21T11:28:54.933Z,101088.55
2019-04-21T11:31:24.937Z,101105.53
2019-04-21T11:33:53.690Z,101101.02
2019-04-21T11:36:22.206Z,101097.84
2019-04-21T11:39:07.526Z,101092.13
2019-04-21T11:41:23.834Z,101091.92
2019-04-21T11:43:53.083Z,101071.02
2019-04-21T11:46:22.534Z,101082.56
2019-04-21T11:48:52.348Z,101077.36
2019-04-21T11:51:21.106Z,101073.02
2019-04-21T11:53:50.678Z,101074.45
2019-04-21T11:56:19.398Z,101077.93
2019-04-21T11:58:47.908Z,101074.16
2019-04-21T12:01:16.421Z,101061.31
2019-04-21T12:03:45.455Z,101066.65
2019-04-21T12:06:15.340Z,101062.98
2019-04-21T12:08:48.173Z,101070.79
2019-04-21T12:11:15.866Z,101060.61
2019-04-21T12:13:45.884Z,101051.88
2019-04-21T12:16:14.996Z,101050.58
2019-04-21T12:18:45.004Z,101042.59
2019-04-21T12:21:15.744Z,101041.56
2019-04-21T12:23:44.747Z,101021.42
2019-04-21T12:26:13.923Z,101030.86
2019-04-21T12:28:43.909Z,101030.30
2019-04-21T12:31:15.744Z,101030.30
2019-04-21T12:33:51.955Z,101019.58
2019-04-21T12:36:21.920Z,101011.34
2019-04-21T12:38:55.817Z,101009.41
2019-04-21T12:41:20.823Z,100994.11
2019-04-21T12:43:50.676Z,101002.30
2019-04-21T12:46:20.051Z,101000.27
2019-04-21T12:48:49.688Z,100998.36
2019-04-21T12:51:19.737Z,100998.90
2019-04-21T12:53:49.766Z,100997.89
2019-04-21T12:56:19.728Z,100999.95
2019-04-21T12:58:49.058Z,100991.78
2019-04-21T13:01:18.894Z,100991.78
2019-04-21T13:03:48.013Z,100991.53
2019-04-21T13:06:16.662Z,100984.88
2019-04-21T13:08:53.365Z,100979.02
2019-04-21T13:11:15.387Z,100974.09
2019-04-21T13:13:43.955Z,100966.45
2019-04-21T13:16:13.682Z,100966.56
2019-04-21T13:18:42.543Z,100957.88
2019-04-21T13:21:12.080Z,100950.49
2019-04-21T13:23:41.159Z,100955.19
2019-04-21T13:26:11.285Z,100947.82
2019-04-21T13:28:40.431Z,100935.93
2019-04-21T13:31:08.987Z,100939.91
2019-04-21T13:33:39.935Z,100933.18
2019-04-21T13:36:09.673Z,100935.17
2019-04-21T13:38:50.482Z,100936.47
2019-04-21T13:41:33.389Z,100924.13
2019-04-21T13:43:50.864Z,100915.27
2019-04-21T13:46:20.652Z,100915.61
2019-04-21T13:48:50.723Z,100918.37
2019-04-21T13:51:19.566Z,100914.41
2019-04-21T13:53:49.443Z,100914.55
2019-04-21T13:56:18.489Z,100902.73
2019-04-21T13:58:48.291Z,100905.41
2019-04-21T14:01:18.048Z,100905.61
2019-04-21T14:03:47.493Z,100901.77
2019-04-21T14:06:16.309Z,100896.64
2019-04-21T14:08:46.680Z,100894.74
2019-04-21T14:11:15.610Z,100894.06
2019-04-21T14:13:44.787Z,100895.41
2019-04-21T14:16:14.036Z,100879.11
2019-04-21T14:18:42.832Z,100883.96
2019-04-21T14:21:11.408Z,100881.77
2019-04-21T14:23:44.579Z,100873.91
2019-04-21T14:26:10.095Z,100873.70
2019-04-21T14:28:43.527Z,100872.37
2019-04-21T14:31:12.769Z,100866.82
2019-04-21T14:33:41.191Z,100863.27
2019-04-21T14:36:10.696Z,100860.41
2019-04-21T14:38:40.688Z,100860.27
2019-04-21T14:41:10.335Z,100853.41
2019-04-21T14:43:39.067Z,100854.37
2019-04-21T14:46:29.122Z,100858.95
2019-04-21T14:49:03.610Z,100848.59
2019-04-21T14:51:41.130Z,100840.37
2019-04-21T14:54:24.699Z,100844.68
2019-04-21T14:56:53.640Z,100846.32
2019-04-21T14:59:22.150Z,100846.53
2019-04-21T15:01:51.805Z,100840.09
2019-04-21T15:04:22.350Z,100842.72
2019-04-21T15:06:51.733Z,100844.91
2019-04-21T15:09:20.995Z,100845.74
2019-04-21T15:11:49.931Z,100837.77
2019-04-21T15:14:20.002Z,100836.63
2019-04-21T15:16:49.071Z,100834.83
2019-04-21T15:19:17.819Z,100830.09
2019-04-21T15:21:46.279Z,100829.13
2019-04-21T15:24:16.121Z,100831.73
2019-04-21T15:26:46.327Z,100824.20
2019-04-21T15:29:15.178Z,100824.59
2019-04-21T15:31:44.812Z,100815.08
2019-04-21T15:34:15.012Z,100812.09
2019-04-21T15:36:44.057Z,100810.30
2019-04-21T15:39:13.993Z,100807.06
2019-04-21T15:41:42.876Z,100806.45
2019-04-21T15:44:12.489Z,100804.19
2019-04-21T15:46:41.883Z,100800.33
2019-04-21T15:49:11.293Z,100797.83
2019-04-21T15:51:40.069Z,100793.92
2019-04-21T15:54:08.895Z,100794.64
2019-04-21T15:56:39.068Z,100787.53
2019-04-21T15:59:10.395Z,100786.31
2019-04-21T16:01:40.836Z,100784.55
2019-04-21T16:04:10.759Z,100788.66
2019-04-21T16:06:39.500Z,100779.47
2019-04-21T16:09:16.194Z,100778.22
2019-04-21T16:11:39.940Z,100777.22
2019-04-21T16:14:10.026Z,100780.56
2019-04-21T16:16:39.276Z,100777.66
2019-04-21T16:19:08.243Z,100771.90
2019-04-21T16:21:40.536Z,100766.64
2019-04-21T16:24:06.996Z,100767.42
2019-04-21T16:26:35.571Z,100766.37
2019-04-21T16:29:04.995Z,100772.56
2019-04-21T16:31:34.333Z,100764.76
2019-04-21T16:34:05.120Z,100762.88
2019-04-21T16:36:33.911Z,100758.25
2019-04-21T16:39:02.362Z,100761.30
2019-04-21T16:41:32.100Z,100754.19
2019-04-21T16:44:00.924Z,100755.27
2019-04-21T16:46:29.590Z,100761.70
2019-04-21T16:48:58.027Z,100756.25
2019-04-21T16:51:26.505Z,100751.38
2019-04-21T16:53:57.710Z,100746.72
2019-04-21T16:56:29.101Z,100745.23
2019-04-21T16:59:00.795Z,100751.20
2019-04-21T17:01:31.856Z,100743.50
2019-04-21T17:04:00.542Z,100740.75
2019-04-21T17:06:29.223Z,100736.49
2019-04-21T17:08:59.016Z,100741.59
2019-04-21T17:11:31.712Z,100739.09
2019-04-21T17:13:58.268Z,100737.44
2019-04-21T17:16:51.458Z,100732.63
2019-04-21T17:19:06.191Z,100730.23
2019-04-21T17:21:28.061Z,100730.34
2019-04-21T17:23:56.936Z,100734.17
2019-04-21T17:26:26.797Z,100736.70
2019-04-21T17:28:56.622Z,100730.45
2019-04-21T17:31:26.656Z,100735.59
2019-04-21T17:34:02.067Z,100724.58
2019-04-21T17:36:29.428Z,100727.12
2019-04-21T17:38:59.988Z,100727.52
2019-04-21T17:41:37.694Z,100718.22
2019-04-21T17:44:00.252Z,100725.71
2019-04-21T17:46:38.844Z,100722.35
2019-04-21T17:48:59.231Z,100722.35
2019-04-21T17:51:51.771Z,100721.48
2019-04-21T17:54:27.654Z,100723.45
2019-04-21T17:57:15.347Z,100722.02
2019-04-21T17:59:51.192Z,100722.27
2019-04-21T18:02:04.030Z,100723.46
2019-04-21T18:04:42.946Z,100721.16
2019-04-21T18:07:08.096Z,100721.16
2019-04-21T18:09:52.901Z,100717.12
2019-04-21T18:12:16.647Z,100718.95
2019-04-21T18:14:30.533Z,100715.29
2019-04-21T18:17:00.391Z,100711.69
2019-04-21T18:19:35.942Z,100716.55
2019-04-21T18:22:17.408Z,100713.50
2019-04-21T18:24:55.657Z,100710.42
2019-04-21T18:27:17.726Z,100714.91
2019-04-21T18:29:46.539Z,100710.22
2019-04-21T18:32:18.517Z,100713.29
2019-04-21T18:34:55.167Z,100719.59
2019-04-21T18:37:40.854Z,100717.36
2019-04-21T18:40:12.330Z,100716.34
2019-04-21T18:42:57.023Z,100716.42
2019-04-21T18:48:06.695Z,100717.58
2019-04-21T18:50:46.015Z,100715.61
2019-04-21T18:53:23.804Z,100710.55
2019-04-21T18:55:47.196Z,100713.28
2019-04-21T18:58:15.243Z,100720.84
2019-04-21T19:00:44.158Z,100714.56
2019-04-21T19:03:15.588Z,100722.82
2019-04-21T19:05:47.820Z,100721.63
2019-04-21T19:08:32.807Z,100723.38
2019-04-21T19:11:03.935Z,100722.11
2019-04-21T19:16:22.796Z,100728.43
2019-04-21T19:18:39.736Z,100723.30
2019-04-21T19:21:02.722Z,100730.45
2019-04-21T19:23:45.212Z,100724.80
2019-04-21T19:26:12.320Z,100725.95
2019-04-21T19:28:37.968Z,100721.61
2019-04-21T19:31:11.571Z,100719.34
2019-04-21T19:33:29.735Z,100723.96
2019-04-21T19:35:47.640Z,100722.61
2019-04-21T19:38:29.164Z,100724.13
2019-04-21T19:41:02.055Z,100726.91
2019-04-21T19:43:37.077Z,100721.47
2019-04-21T19:46:04.325Z,100719.25
2019-04-21T19:48:42.310Z,100718.63
2019-04-21T19:51:05.567Z,100715.34
2019-04-21T19:53:32.913Z,100712.32
2019-04-21T19:55:48.128Z,100711.09
2019-04-21T19:58:19.483Z,100710.78
2019-04-21T20:00:50.709Z,100708.25
2019-04-21T20:03:16.946Z,100705.47
2019-04-21T20:05:54.900Z,100697.69
2019-04-21T20:08:27.788Z,100703.68
2019-04-21T20:11:03.927Z,100697.86
2019-04-21T20:13:51.389Z,100700.38
2019-04-21T20:16:08.058Z,100709.33
2019-04-21T20:18:26.151Z,100700.52
2019-04-21T20:20:48.151Z,100705.61
2019-04-21T20:23:31.546Z,100711.42
2019-04-21T20:26:02.321Z,100705.02
2019-04-21T20:28:38.060Z,100706.23
2019-04-21T20:31:14.767Z,100702.89
2019-04-21T20:34:00.053Z,100698.53
2019-04-21T20:36:15.042Z,100697.22
2019-04-21T20:38:35.944Z,100697.22
2019-04-21T20:41:15.312Z,100696.09
2019-04-21T20:43:45.633Z,100699.48
2019-04-21T20:46:11.813Z,100694.78
2019-04-21T20:48:42.892Z,100699.64
2019-04-21T20:51:18.339Z,100696.34
2019-04-21T20:53:44.982Z,100692.47
2019-04-21T20:56:11.459Z,100694.50
2019-04-21T20:58:45.263Z,100691.57
2019-04-21T21:03:47.879Z,100697.02
2019-04-21T21:06:10.942Z,100696.31
2019-04-21T21:08:44.521Z,100691.72
2019-04-21T21:11:22.012Z,100688.79
2019-04-21T21:13:50.680Z,100684.26
2019-04-21T21:16:20.190Z,100682.75
2019-04-21T21:21:23.000Z,100674.64
2019-04-21T21:23:56.260Z,100676.25
2019-04-21T21:26:25.555Z,100672.20
2019-04-21T21:28:43.038Z,100675.25
2019-04-21T21:31:26.559Z,100673.80
2019-04-21T21:33:59.257Z,100669.67
2019-04-21T21:36:20.870Z,100668.39
2019-04-21T21:38:54.561Z,100675.42
2019-04-21T21:41:16.350Z,100674.17
2019-04-21T21:43:37.879Z,100672.97
2019-04-21T21:46:27.155Z,100671.30
2019-04-21T21:48:50.135Z,100670.26
2019-04-21T21:51:18.166Z,100675.01
2019-04-21T21:53:38.755Z,100668.31
2019-04-21T21:56:08.888Z,100662.58
2019-04-21T21:58:42.344Z,100668.77
2019-04-21T22:01:13.171Z,100659.31
2019-04-21T22:03:46.220Z,100664.88
2019-04-21T22:06:17.524Z,100663.31
2019-04-21T22:08:43.618Z,100662.56
2019-04-21T22:11:12.118Z,100664.77
2019-04-21T22:13:47.521Z,100662.38
2019-04-21T22:16:14.404Z,100659.59
2019-04-21T22:19:05.624Z,100668.36
2019-04-21T22:21:26.366Z,100667.30
2019-04-21T22:23:51.508Z,100665.30
2019-04-21T22:26:11.555Z,100664.60
2019-04-21T22:28:40.099Z,100659.25
2019-04-21T22:31:15.438Z,100663.70
2019-04-21T22:33:45.769Z,100662.16
2019-04-21T22:36:21.001Z,100658.30
2019-04-21T22:38:55.155Z,100656.23
2019-04-21T22:41:18.929Z,100653.48
2019-04-21T22:43:43.816Z,100658.20
2019-04-21T22:46:12.395Z,100663.80
2019-04-21T22:48:40.934Z,100658.13
2019-04-21T22:51:20.632Z,100655.05
2019-04-21T22:53:46.686Z,100654.67
2019-04-21T22:56:17.620Z,100657.41
2019-04-21T22:58:42.919Z,100652.72
2019-04-21T23:01:11.013Z,100654.47
2019-04-21T23:03:47.132Z,100651.20
2019-04-21T23:06:19.199Z,100651.27
2019-04-21T23:08:43.687Z,100648.34
2019-04-21T23:11:12.500Z,100647.10
2019-04-21T23:13:47.315Z,100648.91
2019-04-21T23:16:13.929Z,100643.52
2019-04-21T23:18:59.694Z,100640.25
2019-04-21T23:21:27.817Z,100644.98
2019-04-21T23:24:05.860Z,100640.14
2019-04-21T23:26:32.849Z,100642.76
2019-04-21T23:29:10.969Z,100643.69
2019-04-21T23:31:36.259Z,100646.27
2019-04-21T23:33:48.303Z,100642.97
2019-04-21T23:36:21.347Z,100646.89
2019-04-21T23:38:50.121Z,100641.55
2019-04-21T23:41:17.428Z,100641.08
2019-04-21T23:43:53.160Z,100634.78
2019-04-21T23:46:25.734Z,100630.55
2019-04-21T23:49:03.835Z,100633.55
2019-04-21T23:51:30.181Z,100632.44
2019-04-21T23:53:49.134Z,100634.69
2019-04-21T23:56:23.155Z,100628.78
2019-04-21T23:58:56.228Z,100627.92
